sensor_id;sensor_type;location;lat;lon;timestamp;temperature;humidity
23102;DHT22;11720;51.214;22.574;2023-05-10T00:00:08;6.20;99.90
23102;DHT22;11720;51.214;22.574;2023-05-10T00:09:53;6.00;99.90
23102;DHT22;11720;51.214;22.574;2023-05-10T00:14:44;6.30;99.90
23102;DHT22;11720;51.214;22.574;2023-05-10T00:26:54;6.10;99.90
23102;DHT22;11720;51.214;22.574;2023-05-10T00:34:12;6.20;99.90
23102;DHT22;11720;51.214;22.574;2023-05-10T00:36:37;6.40;99.90
23102;DHT22;11720;51.214;22.574;2023-05-10T00:41:30;6.20;96.10
23102;DHT22;11720;51.214;22.574;2023-05-10T00:46:26;6.20;95.90
23102;DHT22;11720;51.214;22.574;2023-05-10T00:53:46;6.20;95.70
23102;DHT22;11720;51.214;22.574;2023-05-10T01:01:04;6.10;96.20
23102;DHT22;11720;51.214;22.574;2023-05-10T01:03:32;6.10;96.00
23102;DHT22;11720;51.214;22.574;2023-05-10T01:08:25;6.00;95.90
23102;DHT22;11720;51.214;22.574;2023-05-10T01:13:36;6.00;96.30
23102;DHT22;11720;51.214;22.574;2023-05-10T01:18:30;6.00;97.10
23102;DHT22;11720;51.214;22.574;2023-05-10T01:21:31;6.00;97.00
23102;DHT22;11720;51.214;22.574;2023-05-10T01:26:38;5.70;99.90
23102;DHT22;11720;51.214;22.574;2023-05-10T01:35:10;5.70;99.90
23102;DHT22;11720;51.214;22.574;2023-05-10T01:37:42;6.00;99.90
23102;DHT22;11720;51.214;22.574;2023-05-10T01:40:26;6.40;99.90
23102;DHT22;11720;51.214;22.574;2023-05-10T01:43:01;5.80;97.80
23102;DHT22;11720;51.214;22.574;2023-05-10T01:48:20;5.80;97.60
23102;DHT22;11720;51.214;22.574;2023-05-10T01:50:48;5.80;97.60
23102;DHT22;11720;51.214;22.574;2023-05-10T01:53:18;5.80;97.70
23102;DHT22;11720;51.214;22.574;2023-05-10T01:55:48;5.80;97.80
23102;DHT22;11720;51.214;22.574;2023-05-10T01:58:19;5.70;98.30
23102;DHT22;11720;51.214;22.574;2023-05-10T02:00:46;5.70;98.20
23102;DHT22;11720;51.214;22.574;2023-05-10T02:03:14;5.70;97.60
23102;DHT22;11720;51.214;22.574;2023-05-10T02:05:41;5.70;97.50
23102;DHT22;11720;51.214;22.574;2023-05-10T02:17:55;5.70;97.90
23102;DHT22;11720;51.214;22.574;2023-05-10T02:20:23;5.70;98.30
23102;DHT22;11720;51.214;22.574;2023-05-10T02:22:51;5.70;98.30
23102;DHT22;11720;51.214;22.574;2023-05-10T02:25:19;5.70;98.40
23102;DHT22;11720;51.214;22.574;2023-05-10T02:27:46;5.60;98.40
23102;DHT22;11720;51.214;22.574;2023-05-10T02:30:13;5.60;99.10
23102;DHT22;11720;51.214;22.574;2023-05-10T02:32:40;5.60;99.30
23102;DHT22;11720;51.214;22.574;2023-05-10T02:35:08;5.60;99.40
23102;DHT22;11720;51.214;22.574;2023-05-10T02:37:37;5.50;99.50
23102;DHT22;11720;51.214;22.574;2023-05-10T02:40:04;5.60;99.90
23102;DHT22;11720;51.214;22.574;2023-05-10T02:42:33;5.50;99.90
23102;DHT22;11720;51.214;22.574;2023-05-10T02:45:02;5.50;99.70
23102;DHT22;11720;51.214;22.574;2023-05-10T02:52:30;5.50;99.90
23102;DHT22;11720;51.214;22.574;2023-05-10T02:55:03;5.40;99.30
23102;DHT22;11720;51.214;22.574;2023-05-10T02:57:33;5.40;99.20
23102;DHT22;11720;51.214;22.574;2023-05-10T03:07:19;5.30;99.90
23102;DHT22;11720;51.214;22.574;2023-05-10T03:15:20;5.60;99.90
23102;DHT22;11720;51.214;22.574;2023-05-10T03:18:10;5.50;99.90
23102;DHT22;11720;51.214;22.574;2023-05-10T03:20:48;5.20;99.90
23102;DHT22;11720;51.214;22.574;2023-05-10T03:23:27;5.50;99.90
23102;DHT22;11720;51.214;22.574;2023-05-10T03:25:56;5.50;99.90
23102;DHT22;11720;51.214;22.574;2023-05-10T03:28:25;5.60;99.90
23102;DHT22;11720;51.214;22.574;2023-05-10T03:30:52;5.60;99.90
23102;DHT22;11720;51.214;22.574;2023-05-10T04:00:10;6.00;99.90
23102;DHT22;11720;51.214;22.574;2023-05-10T04:02:36;6.00;99.90
23102;DHT22;11720;51.214;22.574;2023-05-10T04:05:01;6.00;99.90
23102;DHT22;11720;51.214;22.574;2023-05-10T04:07:27;6.10;99.90
23102;DHT22;11720;51.214;22.574;2023-05-10T04:09:53;6.00;99.90
23102;DHT22;11720;51.214;22.574;2023-05-10T04:12:19;6.30;99.90
23102;DHT22;11720;51.214;22.574;2023-05-10T04:14:45;6.50;99.20
23102;DHT22;11720;51.214;22.574;2023-05-10T04:17:10;6.60;98.70
23102;DHT22;11720;51.214;22.574;2023-05-10T04:22:03;6.80;99.90
23102;DHT22;11720;51.214;22.574;2023-05-10T04:24:28;7.00;96.90
23102;DHT22;11720;51.214;22.574;2023-05-10T04:26:54;7.10;97.00
23102;DHT22;11720;51.214;22.574;2023-05-10T04:29:20;7.20;96.30
23102;DHT22;11720;51.214;22.574;2023-05-10T04:31:46;7.20;96.10
23102;DHT22;11720;51.214;22.574;2023-05-10T04:34:12;7.30;95.50
23102;DHT22;11720;51.214;22.574;2023-05-10T04:36:37;7.40;95.50
23102;DHT22;11720;51.214;22.574;2023-05-10T04:39:03;7.50;94.30
23102;DHT22;11720;51.214;22.574;2023-05-10T04:46:21;7.80;92.30
23102;DHT22;11720;51.214;22.574;2023-05-10T04:48:47;7.90;92.80
23102;DHT22;11720;51.214;22.574;2023-05-10T04:51:13;8.00;93.00
23102;DHT22;11720;51.214;22.574;2023-05-10T04:56:05;8.20;91.90
23102;DHT22;11720;51.214;22.574;2023-05-10T05:00:57;8.30;91.40
23102;DHT22;11720;51.214;22.574;2023-05-10T05:03:29;8.40;91.40
23102;DHT22;11720;51.214;22.574;2023-05-10T05:05:55;8.50;91.10
23102;DHT22;11720;51.214;22.574;2023-05-10T05:08:21;8.80;96.60
23102;DHT22;11720;51.214;22.574;2023-05-10T05:10:48;8.80;90.50
23102;DHT22;11720;51.214;22.574;2023-05-10T05:13:15;8.60;96.60
23102;DHT22;11720;51.214;22.574;2023-05-10T05:15:41;8.80;97.10
23102;DHT22;11720;51.214;22.574;2023-05-10T05:20:33;9.00;96.20
23102;DHT22;11720;51.214;22.574;2023-05-10T05:22:59;9.20;90.10
23102;DHT22;11720;51.214;22.574;2023-05-10T05:25:25;9.30;89.30
23102;DHT22;11720;51.214;22.574;2023-05-10T05:27:51;9.10;95.30
23102;DHT22;11720;51.214;22.574;2023-05-10T05:32:42;9.50;94.80
23102;DHT22;11720;51.214;22.574;2023-05-10T05:35:08;9.70;87.90
23102;DHT22;11720;51.214;22.574;2023-05-10T05:40:00;9.80;95.30
23102;DHT22;11720;51.214;22.574;2023-05-10T05:42:27;10.10;86.50
23102;DHT22;11720;51.214;22.574;2023-05-10T05:47:18;10.40;93.90
23102;DHT22;11720;51.214;22.574;2023-05-10T05:49:44;10.80;94.70
23102;DHT22;11720;51.214;22.574;2023-05-10T05:52:12;10.60;85.20
23102;DHT22;11720;51.214;22.574;2023-05-10T05:57:05;11.10;94.20
23102;DHT22;11720;51.214;22.574;2023-05-10T05:59:31;10.90;85.40
23102;DHT22;11720;51.214;22.574;2023-05-10T06:04:22;11.20;83.40
23102;DHT22;11720;51.214;22.574;2023-05-10T06:06:48;11.30;94.60
23102;DHT22;11720;51.214;22.574;2023-05-10T06:09:14;11.40;86.50
23102;DHT22;11720;51.214;22.574;2023-05-10T06:11:40;11.40;84.90
23102;DHT22;11720;51.214;22.574;2023-05-10T06:14:06;11.70;93.40
23102;DHT22;11720;51.214;22.574;2023-05-10T06:16:33;11.60;93.00
23102;DHT22;11720;51.214;22.574;2023-05-10T06:18:59;11.50;91.70
23102;DHT22;11720;51.214;22.574;2023-05-10T06:23:51;11.40;94.80
23102;DHT22;11720;51.214;22.574;2023-05-10T06:28:42;11.90;86.50
23102;DHT22;11720;51.214;22.574;2023-05-10T06:31:08;12.00;86.60
23102;DHT22;11720;51.214;22.574;2023-05-10T06:33:34;12.20;85.50
23102;DHT22;11720;51.214;22.574;2023-05-10T06:35:59;12.30;90.70
23102;DHT22;11720;51.214;22.574;2023-05-10T06:40:51;12.60;82.40
23102;DHT22;11720;51.214;22.574;2023-05-10T06:45:43;12.60;79.40
23102;DHT22;11720;51.214;22.574;2023-05-10T06:50:35;12.60;86.50
23102;DHT22;11720;51.214;22.574;2023-05-10T06:53:01;12.70;78.20
23102;DHT22;11720;51.214;22.574;2023-05-10T06:57:53;13.00;77.70
23102;DHT22;11720;51.214;22.574;2023-05-10T07:00:19;13.10;75.70
23102;DHT22;11720;51.214;22.574;2023-05-10T07:02:46;13.20;73.60
23102;DHT22;11720;51.214;22.574;2023-05-10T07:05:12;13.20;72.30
23102;DHT22;11720;51.214;22.574;2023-05-10T07:07:38;13.20;72.70
23102;DHT22;11720;51.214;22.574;2023-05-10T07:10:05;13.20;73.60
23102;DHT22;11720;51.214;22.574;2023-05-10T07:12:31;13.30;76.30
23102;DHT22;11720;51.214;22.574;2023-05-10T07:14:56;13.50;76.90
23102;DHT22;11720;51.214;22.574;2023-05-10T07:17:22;13.50;77.30
23102;DHT22;11720;51.214;22.574;2023-05-10T07:19:48;13.60;82.60
23102;DHT22;11720;51.214;22.574;2023-05-10T07:22:14;13.70;70.40
23102;DHT22;11720;51.214;22.574;2023-05-10T07:24:40;13.60;70.90
23102;DHT22;11720;51.214;22.574;2023-05-10T07:29:32;13.60;98.70
23102;DHT22;11720;51.214;22.574;2023-05-10T07:31:58;14.50;99.60
23102;DHT22;11720;51.214;22.574;2023-05-10T07:36:50;13.90;81.30
23102;DHT22;11720;51.214;22.574;2023-05-10T07:39:16;14.10;69.20
23102;DHT22;11720;51.214;22.574;2023-05-10T07:44:08;14.60;81.40
23102;DHT22;11720;51.214;22.574;2023-05-10T07:51:26;14.50;64.70
23102;DHT22;11720;51.214;22.574;2023-05-10T07:53:53;14.60;61.80
23102;DHT22;11720;51.214;22.574;2023-05-10T07:58:50;14.60;59.00
23102;DHT22;11720;51.214;22.574;2023-05-10T08:01:16;14.60;56.70
23102;DHT22;11720;51.214;22.574;2023-05-10T08:06:07;14.90;58.90
23102;DHT22;11720;51.214;22.574;2023-05-10T08:08:33;14.90;57.30
23102;DHT22;11720;51.214;22.574;2023-05-10T08:10:59;15.00;57.70
23102;DHT22;11720;51.214;22.574;2023-05-10T08:13:24;15.10;57.30
23102;DHT22;11720;51.214;22.574;2023-05-10T08:15:50;15.30;56.20
23102;DHT22;11720;51.214;22.574;2023-05-10T08:18:18;15.30;54.50
23102;DHT22;11720;51.214;22.574;2023-05-10T08:20:44;15.30;55.50
23102;DHT22;11720;51.214;22.574;2023-05-10T08:23:11;15.30;52.10
23102;DHT22;11720;51.214;22.574;2023-05-10T08:25:37;15.20;50.80
23102;DHT22;11720;51.214;22.574;2023-05-10T08:28:03;15.20;50.80
23102;DHT22;11720;51.214;22.574;2023-05-10T08:32:55;15.20;51.10
23102;DHT22;11720;51.214;22.574;2023-05-10T08:35:20;15.30;51.30
23102;DHT22;11720;51.214;22.574;2023-05-10T08:37:46;15.40;50.10
23102;DHT22;11720;51.214;22.574;2023-05-10T08:42:43;15.50;46.80
23102;DHT22;11720;51.214;22.574;2023-05-10T08:45:11;15.50;48.60
23102;DHT22;11720;51.214;22.574;2023-05-10T08:47:37;15.90;57.60
23102;DHT22;11720;51.214;22.574;2023-05-10T08:50:04;15.30;57.00
23102;DHT22;11720;51.214;22.574;2023-05-10T08:52:33;15.60;48.80
23102;DHT22;11720;51.214;22.574;2023-05-10T08:55:01;15.60;47.90
23102;DHT22;11720;51.214;22.574;2023-05-10T08:57:27;15.50;47.70
23102;DHT22;11720;51.214;22.574;2023-05-10T08:59:53;15.50;48.40
23102;DHT22;11720;51.214;22.574;2023-05-10T09:02:20;15.60;48.80
23102;DHT22;11720;51.214;22.574;2023-05-10T09:04:46;15.90;50.50
23102;DHT22;11720;51.214;22.574;2023-05-10T09:07:12;16.00;50.10
23102;DHT22;11720;51.214;22.574;2023-05-10T09:09:38;16.20;50.30
23102;DHT22;11720;51.214;22.574;2023-05-10T09:12:04;16.40;58.40
23102;DHT22;11720;51.214;22.574;2023-05-10T09:14:30;16.10;57.70
23102;DHT22;11720;51.214;22.574;2023-05-10T09:16:59;16.00;48.90
23102;DHT22;11720;51.214;22.574;2023-05-10T09:24:17;16.60;78.70
23102;DHT22;11720;51.214;22.574;2023-05-10T09:26:47;16.10;68.20
23102;DHT22;11720;51.214;22.574;2023-05-10T09:29:14;16.10;48.60
23102;DHT22;11720;51.214;22.574;2023-05-10T09:31:58;16.30;48.60
23102;DHT22;11720;51.214;22.574;2023-05-10T09:34:31;16.30;46.80
23102;DHT22;11720;51.214;22.574;2023-05-10T09:36:59;16.40;47.20
23102;DHT22;11720;51.214;22.574;2023-05-10T09:39:35;16.30;45.40
23102;DHT22;11720;51.214;22.574;2023-05-10T09:42:04;16.20;52.90
23102;DHT22;11720;51.214;22.574;2023-05-10T09:44:31;16.30;49.00
23102;DHT22;11720;51.214;22.574;2023-05-10T09:46:56;16.40;48.10
23102;DHT22;11720;51.214;22.574;2023-05-10T09:49:22;16.50;47.70
23102;DHT22;11720;51.214;22.574;2023-05-10T09:52:00;16.70;47.80
23102;DHT22;11720;51.214;22.574;2023-05-10T09:54:25;17.00;48.90
23102;DHT22;11720;51.214;22.574;2023-05-10T09:59:18;16.90;46.00
23102;DHT22;11720;51.214;22.574;2023-05-10T10:01:49;16.80;46.00
23102;DHT22;11720;51.214;22.574;2023-05-10T10:04:15;16.60;45.80
23102;DHT22;11720;51.214;22.574;2023-05-10T10:09:08;16.60;46.70
23102;DHT22;11720;51.214;22.574;2023-05-10T10:11:37;16.60;48.20
23102;DHT22;11720;51.214;22.574;2023-05-10T10:14:04;16.50;46.70
23102;DHT22;11720;51.214;22.574;2023-05-10T10:16:31;16.50;47.60
23102;DHT22;11720;51.214;22.574;2023-05-10T10:18:57;16.80;49.70
23102;DHT22;11720;51.214;22.574;2023-05-10T10:21:23;17.10;64.20
23102;DHT22;11720;51.214;22.574;2023-05-10T10:23:50;17.20;49.50
23102;DHT22;11720;51.214;22.574;2023-05-10T10:26:17;17.60;74.10
23102;DHT22;11720;51.214;22.574;2023-05-10T10:29:00;17.30;46.40
23102;DHT22;11720;51.214;22.574;2023-05-10T10:31:47;17.20;47.20
23102;DHT22;11720;51.214;22.574;2023-05-10T10:34:29;17.20;47.60
23102;DHT22;11720;51.214;22.574;2023-05-10T10:36:57;17.30;47.10
23102;DHT22;11720;51.214;22.574;2023-05-10T10:39:23;17.40;48.70
23102;DHT22;11720;51.214;22.574;2023-05-10T10:41:55;17.50;46.30
23102;DHT22;11720;51.214;22.574;2023-05-10T10:52:30;17.40;46.10
23102;DHT22;11720;51.214;22.574;2023-05-10T10:55:02;17.50;46.50
23102;DHT22;11720;51.214;22.574;2023-05-10T11:00:27;17.80;46.20
23102;DHT22;11720;51.214;22.574;2023-05-10T11:05:39;17.50;45.80
23102;DHT22;11720;51.214;22.574;2023-05-10T11:10:36;17.50;45.60
23102;DHT22;11720;51.214;22.574;2023-05-10T11:13:04;17.60;46.30
23102;DHT22;11720;51.214;22.574;2023-05-10T11:15:36;17.60;44.80
23102;DHT22;11720;51.214;22.574;2023-05-10T11:18:19;17.70;45.40
23102;DHT22;11720;51.214;22.574;2023-05-10T11:20:50;17.90;44.10
23102;DHT22;11720;51.214;22.574;2023-05-10T11:23:16;18.00;43.40
23102;DHT22;11720;51.214;22.574;2023-05-10T11:25:44;18.00;43.50
23102;DHT22;11720;51.214;22.574;2023-05-10T11:28:10;17.80;42.60
23102;DHT22;11720;51.214;22.574;2023-05-10T11:30:38;17.40;43.40
23102;DHT22;11720;51.214;22.574;2023-05-10T11:33:05;17.20;43.50
23102;DHT22;11720;51.214;22.574;2023-05-10T11:35:37;17.40;44.40
23102;DHT22;11720;51.214;22.574;2023-05-10T11:38:06;17.40;43.10
23102;DHT22;11720;51.214;22.574;2023-05-10T11:40:31;17.50;43.60
23102;DHT22;11720;51.214;22.574;2023-05-10T11:42:57;17.70;41.90
23102;DHT22;11720;51.214;22.574;2023-05-10T11:45:24;17.80;43.00
23102;DHT22;11720;51.214;22.574;2023-05-10T11:47:49;18.10;41.50
23102;DHT22;11720;51.214;22.574;2023-05-10T11:50:16;18.20;42.10
23102;DHT22;11720;51.214;22.574;2023-05-10T11:52:42;18.30;41.90
23102;DHT22;11720;51.214;22.574;2023-05-10T11:55:08;18.50;41.20
23102;DHT22;11720;51.214;22.574;2023-05-10T12:00:00;18.70;40.60
23102;DHT22;11720;51.214;22.574;2023-05-10T12:02:25;18.60;40.20
23102;DHT22;11720;51.214;22.574;2023-05-10T12:04:51;18.70;41.30
23102;DHT22;11720;51.214;22.574;2023-05-10T12:07:17;18.70;39.70
23102;DHT22;11720;51.214;22.574;2023-05-10T12:09:43;18.70;40.80
23102;DHT22;11720;51.214;22.574;2023-05-10T12:12:20;18.70;40.60
23102;DHT22;11720;51.214;22.574;2023-05-10T12:14:50;18.90;42.60
23102;DHT22;11720;51.214;22.574;2023-05-10T12:17:17;18.90;40.80
23102;DHT22;11720;51.214;22.574;2023-05-10T12:19:42;19.00;42.90
23102;DHT22;11720;51.214;22.574;2023-05-10T12:22:09;19.20;40.60
23102;DHT22;11720;51.214;22.574;2023-05-10T12:24:36;19.20;40.30
23102;DHT22;11720;51.214;22.574;2023-05-10T12:27:08;19.30;41.50
23102;DHT22;11720;51.214;22.574;2023-05-10T12:29:34;19.30;40.10
23102;DHT22;11720;51.214;22.574;2023-05-10T12:32:00;19.00;40.40
23102;DHT22;11720;51.214;22.574;2023-05-10T12:34:32;18.70;39.60
23102;DHT22;11720;51.214;22.574;2023-05-10T12:36:59;18.60;40.20
23102;DHT22;11720;51.214;22.574;2023-05-10T12:39:25;18.50;39.50
23102;DHT22;11720;51.214;22.574;2023-05-10T12:41:52;18.30;40.30
23102;DHT22;11720;51.214;22.574;2023-05-10T12:44:18;18.40;40.50
23102;DHT22;11720;51.214;22.574;2023-05-10T12:46:44;18.30;40.40
23102;DHT22;11720;51.214;22.574;2023-05-10T12:49:09;18.40;40.20
23102;DHT22;11720;51.214;22.574;2023-05-10T12:51:35;18.50;40.70
23102;DHT22;11720;51.214;22.574;2023-05-10T12:54:02;18.50;40.60
23102;DHT22;11720;51.214;22.574;2023-05-10T12:56:28;18.60;40.70
23102;DHT22;11720;51.214;22.574;2023-05-10T12:58:53;18.90;40.60
23102;DHT22;11720;51.214;22.574;2023-05-10T13:01:19;19.00;41.40
23102;DHT22;11720;51.214;22.574;2023-05-10T13:03:45;19.10;40.10
23102;DHT22;11720;51.214;22.574;2023-05-10T13:06:10;18.80;39.60
23102;DHT22;11720;51.214;22.574;2023-05-10T13:08:36;18.70;38.40
23102;DHT22;11720;51.214;22.574;2023-05-10T13:11:02;18.80;41.60
23102;DHT22;11720;51.214;22.574;2023-05-10T13:13:28;19.00;41.30
23102;DHT22;11720;51.214;22.574;2023-05-10T13:15:54;18.90;40.00
23102;DHT22;11720;51.214;22.574;2023-05-10T13:18:20;19.00;40.20
23102;DHT22;11720;51.214;22.574;2023-05-10T13:20:46;19.00;40.90
23102;DHT22;11720;51.214;22.574;2023-05-10T13:23:12;19.00;40.80
23102;DHT22;11720;51.214;22.574;2023-05-10T13:25:39;19.20;40.20
23102;DHT22;11720;51.214;22.574;2023-05-10T13:30:31;19.20;39.90
23102;DHT22;11720;51.214;22.574;2023-05-10T13:32:57;19.20;41.10
23102;DHT22;11720;51.214;22.574;2023-05-10T13:35:22;19.30;40.80
23102;DHT22;11720;51.214;22.574;2023-05-10T13:37:50;19.40;40.30
23102;DHT22;11720;51.214;22.574;2023-05-10T13:40:19;19.50;39.70
23102;DHT22;11720;51.214;22.574;2023-05-10T13:42:44;19.60;39.50
23102;DHT22;11720;51.214;22.574;2023-05-10T13:45:11;19.60;39.70
23102;DHT22;11720;51.214;22.574;2023-05-10T13:47:38;19.60;40.60
23102;DHT22;11720;51.214;22.574;2023-05-10T13:50:04;19.50;38.80
23102;DHT22;11720;51.214;22.574;2023-05-10T13:52:31;19.20;39.80
23102;DHT22;11720;51.214;22.574;2023-05-10T13:54:57;19.00;40.70
23102;DHT22;11720;51.214;22.574;2023-05-10T13:57:23;19.20;43.50
23102;DHT22;11720;51.214;22.574;2023-05-10T13:59:49;19.10;38.80
23102;DHT22;11720;51.214;22.574;2023-05-10T14:02:15;19.10;39.50
23102;DHT22;11720;51.214;22.574;2023-05-10T14:04:41;19.10;39.20
23102;DHT22;11720;51.214;22.574;2023-05-10T14:09:33;19.10;38.40
23102;DHT22;11720;51.214;22.574;2023-05-10T14:11:59;19.10;39.70
23102;DHT22;11720;51.214;22.574;2023-05-10T14:14:24;19.10;40.00
23102;DHT22;11720;51.214;22.574;2023-05-10T14:16:50;19.00;39.40
23102;DHT22;11720;51.214;22.574;2023-05-10T14:21:42;18.80;39.00
23102;DHT22;11720;51.214;22.574;2023-05-10T14:24:08;19.00;40.10
23102;DHT22;11720;51.214;22.574;2023-05-10T14:26:35;19.20;40.40
23102;DHT22;11720;51.214;22.574;2023-05-10T14:29:01;19.00;39.00
23102;DHT22;11720;51.214;22.574;2023-05-10T14:31:27;19.10;39.30
23102;DHT22;11720;51.214;22.574;2023-05-10T14:33:53;19.20;38.90
23102;DHT22;11720;51.214;22.574;2023-05-10T14:38:44;19.20;37.20
23102;DHT22;11720;51.214;22.574;2023-05-10T14:41:10;19.20;39.80
23102;DHT22;11720;51.214;22.574;2023-05-10T14:43:40;19.20;38.10
23102;DHT22;11720;51.214;22.574;2023-05-10T14:46:06;19.10;38.60
23102;DHT22;11720;51.214;22.574;2023-05-10T14:48:32;19.00;39.60
23102;DHT22;11720;51.214;22.574;2023-05-10T14:50:58;18.90;38.50
23102;DHT22;11720;51.214;22.574;2023-05-10T14:53:23;18.90;38.70
23102;DHT22;11720;51.214;22.574;2023-05-10T14:55:49;18.90;39.30
23102;DHT22;11720;51.214;22.574;2023-05-10T14:58:15;18.90;40.40
23102;DHT22;11720;51.214;22.574;2023-05-10T15:00:41;19.00;39.90
23102;DHT22;11720;51.214;22.574;2023-05-10T15:03:07;19.10;39.50
23102;DHT22;11720;51.214;22.574;2023-05-10T15:05:32;19.10;39.70
23102;DHT22;11720;51.214;22.574;2023-05-10T15:07:58;19.10;39.00
23102;DHT22;11720;51.214;22.574;2023-05-10T15:10:24;19.00;39.20
23102;DHT22;11720;51.214;22.574;2023-05-10T15:12:50;18.90;39.20
23102;DHT22;11720;51.214;22.574;2023-05-10T15:15:16;18.80;38.90
23102;DHT22;11720;51.214;22.574;2023-05-10T15:17:42;18.50;38.30
23102;DHT22;11720;51.214;22.574;2023-05-10T15:20:08;18.40;38.90
23102;DHT22;11720;51.214;22.574;2023-05-10T15:22:33;18.50;38.40
23102;DHT22;11720;51.214;22.574;2023-05-10T15:24:59;18.40;38.30
23102;DHT22;11720;51.214;22.574;2023-05-10T15:27:26;18.50;46.20
23102;DHT22;11720;51.214;22.574;2023-05-10T15:29:52;18.60;43.40
23102;DHT22;11720;51.214;22.574;2023-05-10T15:32:18;18.70;42.80
23102;DHT22;11720;51.214;22.574;2023-05-10T15:34:43;18.80;41.80
23102;DHT22;11720;51.214;22.574;2023-05-10T15:37:10;18.60;38.40
23102;DHT22;11720;51.214;22.574;2023-05-10T15:42:02;18.60;38.70
23102;DHT22;11720;51.214;22.574;2023-05-10T15:44:28;18.90;38.80
23102;DHT22;11720;51.214;22.574;2023-05-10T15:46:54;18.90;38.50
23102;DHT22;11720;51.214;22.574;2023-05-10T15:49:20;18.90;38.40
23102;DHT22;11720;51.214;22.574;2023-05-10T15:51:46;18.60;38.40
23102;DHT22;11720;51.214;22.574;2023-05-10T15:54:11;18.80;38.30
23102;DHT22;11720;51.214;22.574;2023-05-10T15:56:37;19.10;37.90
23102;DHT22;11720;51.214;22.574;2023-05-10T15:59:04;19.10;37.90
23102;DHT22;11720;51.214;22.574;2023-05-10T16:01:31;19.20;37.90
23102;DHT22;11720;51.214;22.574;2023-05-10T16:03:57;19.40;38.10
23102;DHT22;11720;51.214;22.574;2023-05-10T16:06:23;19.50;37.50
23102;DHT22;11720;51.214;22.574;2023-05-10T16:08:49;19.50;38.00
23102;DHT22;11720;51.214;22.574;2023-05-10T16:11:15;21.10;39.20
23102;DHT22;11720;51.214;22.574;2023-05-10T16:13:41;19.10;37.80
23102;DHT22;11720;51.214;22.574;2023-05-10T16:16:07;18.80;37.90
23102;DHT22;11720;51.214;22.574;2023-05-10T16:18:33;18.50;38.80
23102;DHT22;11720;51.214;22.574;2023-05-10T16:21:00;18.20;39.00
23102;DHT22;11720;51.214;22.574;2023-05-10T16:23:27;17.90;39.20
23102;DHT22;11720;51.214;22.574;2023-05-10T16:25:53;17.60;39.30
23102;DHT22;11720;51.214;22.574;2023-05-10T16:28:20;17.20;39.40
23102;DHT22;11720;51.214;22.574;2023-05-10T16:30:47;17.00;39.90
23102;DHT22;11720;51.214;22.574;2023-05-10T16:33:13;16.80;40.50
23102;DHT22;11720;51.214;22.574;2023-05-10T16:35:39;16.60;40.90
23102;DHT22;11720;51.214;22.574;2023-05-10T16:38:05;16.40;40.50
23102;DHT22;11720;51.214;22.574;2023-05-10T16:40:31;16.30;41.00
23102;DHT22;11720;51.214;22.574;2023-05-10T16:42:57;16.10;40.60
23102;DHT22;11720;51.214;22.574;2023-05-10T16:45:24;16.00;41.40
23102;DHT22;11720;51.214;22.574;2023-05-10T16:47:51;16.00;42.70
23102;DHT22;11720;51.214;22.574;2023-05-10T16:50:20;15.90;42.20
23102;DHT22;11720;51.214;22.574;2023-05-10T16:52:46;15.80;42.80
23102;DHT22;11720;51.214;22.574;2023-05-10T16:55:12;15.70;42.50
23102;DHT22;11720;51.214;22.574;2023-05-10T16:57:38;15.70;42.80
23102;DHT22;11720;51.214;22.574;2023-05-10T17:00:04;15.50;43.10
23102;DHT22;11720;51.214;22.574;2023-05-10T17:02:30;15.40;43.40
23102;DHT22;11720;51.214;22.574;2023-05-10T17:04:56;15.30;43.90
23102;DHT22;11720;51.214;22.574;2023-05-10T17:07:22;15.30;44.20
23102;DHT22;11720;51.214;22.574;2023-05-10T17:09:47;15.20;44.00
23102;DHT22;11720;51.214;22.574;2023-05-10T17:12:13;15.10;43.90
23102;DHT22;11720;51.214;22.574;2023-05-10T17:14:39;15.10;44.00
23102;DHT22;11720;51.214;22.574;2023-05-10T17:17:05;15.00;44.60
23102;DHT22;11720;51.214;22.574;2023-05-10T17:19:32;14.90;44.90
23102;DHT22;11720;51.214;22.574;2023-05-10T17:21:58;14.80;45.20
23102;DHT22;11720;51.214;22.574;2023-05-10T17:24:23;14.80;45.00
23102;DHT22;11720;51.214;22.574;2023-05-10T17:26:52;14.70;45.30
23102;DHT22;11720;51.214;22.574;2023-05-10T17:29:18;14.60;46.40
23102;DHT22;11720;51.214;22.574;2023-05-10T17:31:44;14.50;46.00
23102;DHT22;11720;51.214;22.574;2023-05-10T17:34:10;14.50;45.60
23102;DHT22;11720;51.214;22.574;2023-05-10T17:36:36;14.40;45.80
23102;DHT22;11720;51.214;22.574;2023-05-10T17:39:02;14.30;48.40
23102;DHT22;11720;51.214;22.574;2023-05-10T17:41:28;14.20;46.60
23102;DHT22;11720;51.214;22.574;2023-05-10T17:43:54;14.20;46.90
23102;DHT22;11720;51.214;22.574;2023-05-10T17:46:20;14.10;47.10
23102;DHT22;11720;51.214;22.574;2023-05-10T17:48:45;14.00;48.70
23102;DHT22;11720;51.214;22.574;2023-05-10T17:51:11;13.90;48.30
23102;DHT22;11720;51.214;22.574;2023-05-10T17:53:42;13.80;48.80
23102;DHT22;11720;51.214;22.574;2023-05-10T17:56:08;13.70;48.30
23102;DHT22;11720;51.214;22.574;2023-05-10T17:58:35;13.60;48.90
23102;DHT22;11720;51.214;22.574;2023-05-10T18:01:03;13.50;48.90
23102;DHT22;11720;51.214;22.574;2023-05-10T18:03:29;10.40;47.20
23102;DHT22;11720;51.214;22.574;2023-05-10T18:05:54;13.40;49.50
23102;DHT22;11720;51.214;22.574;2023-05-10T18:08:20;13.30;49.50
23102;DHT22;11720;51.214;22.574;2023-05-10T18:10:51;13.20;50.00
23102;DHT22;11720;51.214;22.574;2023-05-10T18:13:17;13.10;49.80
23102;DHT22;11720;51.214;22.574;2023-05-10T18:15:43;13.00;50.10
23102;DHT22;11720;51.214;22.574;2023-05-10T18:20:36;12.80;49.80
23102;DHT22;11720;51.214;22.574;2023-05-10T18:23:02;12.70;50.90
23102;DHT22;11720;51.214;22.574;2023-05-10T18:25:27;12.70;51.00
23102;DHT22;11720;51.214;22.574;2023-05-10T18:27:53;12.60;51.20
23102;DHT22;11720;51.214;22.574;2023-05-10T18:30:19;12.60;51.50
23102;DHT22;11720;51.214;22.574;2023-05-10T18:32:45;12.40;51.50
23102;DHT22;11720;51.214;22.574;2023-05-10T18:37:37;12.30;51.20
23102;DHT22;11720;51.214;22.574;2023-05-10T18:40:04;12.30;52.30
23102;DHT22;11720;51.214;22.574;2023-05-10T18:42:34;11.40;51.60
23102;DHT22;11720;51.214;22.574;2023-05-10T18:45:00;12.10;53.20
23102;DHT22;11720;51.214;22.574;2023-05-10T18:47:26;12.00;53.40
23102;DHT22;11720;51.214;22.574;2023-05-10T18:49:52;11.70;57.90
23102;DHT22;11720;51.214;22.574;2023-05-10T18:52:18;11.90;53.30
23102;DHT22;11720;51.214;22.574;2023-05-10T18:57:11;11.80;53.20
23102;DHT22;11720;51.214;22.574;2023-05-10T18:59:38;11.70;54.10
23102;DHT22;11720;51.214;22.574;2023-05-10T19:04:31;11.60;53.80